Time;durP1;ratioP1;P1;durP2;ratioP2;P2;SDS_P1;SDS_P2;PMS_P1;PMS_P2;Temp;Humidity;BMP_temperature;BMP_pressure;BME280_temperature;BME280_humidity;BME280_pressure;Samples;Min_cycle;Max_cycle;Signal;HPM_P1;HPM_P2
2021/06/17 00:02:14;;;;;;;20.68;16.30;;;;;;;15.36;71.94;99254.30;2170789;82;20956;-81
2021/06/17 00:05:15;;;;;;;26.40;17.57;;;;;;;15.31;71.96;99253.42;2170704;82;20933;-81
2021/06/17 00:08:16;;;;;;;37.23;18.32;;;;;;;15.27;72.02;99250.36;2170347;82;20980;-80
2021/06/17 00:11:17;;;;;;;57.98;20.17;;;;;;;15.25;72.60;99251.67;2170889;82;20956;-79
2021/06/17 00:14:18;;;;;;;21.52;17.00;;;;;;;15.23;72.65;99250.80;2170774;82;21347;-80
2021/06/17 00:17:19;;;;;;;18.67;16.45;;;;;;;15.20;72.30;99260.00;2170668;82;20929;-80
2021/06/17 00:20:20;;;;;;;23.55;17.00;;;;;;;15.12;72.39;99257.81;2170596;82;21412;-80
2021/06/17 00:23:21;;;;;;;18.65;16.15;;;;;;;15.08;72.60;99250.80;2170639;82;21120;-79
2021/06/17 00:26:22;;;;;;;18.55;16.60;;;;;;;15.06;72.98;99252.55;2170880;82;20893;-80
2021/06/17 00:29:23;;;;;;;18.62;16.32;;;;;;;15.00;72.82;99252.55;2170731;82;20912;-80
2021/06/17 00:32:24;;;;;;;18.82;15.88;;;;;;;14.95;72.69;99252.55;2170566;82;21368;-80
2021/06/17 00:35:25;;;;;;;21.97;16.42;;;;;;;14.93;72.99;99254.73;2170547;82;20920;-79
2021/06/17 00:38:26;;;;;;;20.20;16.32;;;;;;;14.88;73.16;99252.54;2172194;82;21332;-79
2021/06/17 00:41:27;;;;;;;23.10;17.70;;;;;;;14.83;73.16;99255.16;2176726;82;20925;-80
2021/06/17 00:44:28;;;;;;;20.37;15.23;;;;;;;14.80;73.21;99255.59;2176889;82;20952;-80
2021/06/17 00:47:29;;;;;;;20.65;16.55;;;;;;;14.76;73.39;99253.84;2176730;82;21412;-78
2021/06/17 00:50:30;;;;;;;18.25;16.05;;;;;;;14.70;73.66;99252.05;2176608;82;21064;-80
2021/06/17 00:53:31;;;;;;;19.92;16.60;;;;;;;14.70;73.55;99255.11;2177016;82;20937;-80
2021/06/17 00:56:32;;;;;;;19.73;16.62;;;;;;;14.69;73.89;99254.23;2176989;82;21399;-80
2021/06/17 00:59:33;;;;;;;31.75;17.23;;;;;;;14.65;73.68;99259.05;2176803;82;21376;-80
2021/06/17 01:02:35;;;;;;;18.77;16.80;;;;;;;14.61;73.91;99255.53;2176889;82;20968;-81
2021/06/17 01:05:36;;;;;;;22.90;16.62;;;;;;;14.58;73.90;99262.09;2176973;82;21280;-80
2021/06/17 01:08:37;;;;;;;20.37;17.30;;;;;;;14.57;73.99;99262.97;2177068;82;20928;-81
2021/06/17 01:11:38;;;;;;;20.15;16.27;;;;;;;14.56;73.95;99262.52;2176669;82;20976;-80
2021/06/17 01:14:39;;;;;;;18.85;15.25;;;;;;;14.53;74.03;99253.33;2176869;82;21028;-80
2021/06/17 01:17:42;;;;;;;18.48;16.37;;;;;;;14.52;74.05;99258.14;2176907;82;20928;-81
2021/06/17 01:20:43;;;;;;;17.45;15.75;;;;;;;14.48;74.34;99252.44;2176945;82;21052;-79
2021/06/17 01:23:44;;;;;;;22.13;17.32;;;;;;;14.45;74.08;99258.99;2177073;82;21300;-80
2021/06/17 01:26:45;;;;;;;18.45;16.57;;;;;;;14.42;74.27;99260.30;2176954;82;20992;-79
2021/06/17 01:29:46;;;;;;;18.85;17.02;;;;;;;14.41;74.33;99258.95;2176617;82;21016;-80
2021/06/17 01:32:48;;;;;;;17.65;15.80;;;;;;;14.38;74.53;99245.80;2176664;82;21292;-80
2021/06/17 01:35:49;;;;;;;21.95;16.23;;;;;;;14.34;74.46;99255.42;2176966;82;20932;-80
2021/06/17 01:38:50;;;;;;;16.60;14.85;;;;;;;14.33;74.59;99256.30;2171068;82;21037;-81
2021/06/17 01:41:51;;;;;;;18.60;15.75;;;;;;;14.29;74.38;99254.53;2160671;82;20993;-80
2021/06/17 01:44:52;;;;;;;21.25;16.23;;;;;;;14.23;74.25;99255.83;2160317;82;20993;-80
2021/06/17 01:47:53;;;;;;;16.65;14.87;;;;;;;14.19;74.40;99252.31;2160736;82;20933;-81
2021/06/17 01:50:56;;;;;;;16.93;15.23;;;;;;;14.18;74.34;99254.93;2160675;82;20980;-81
2021/06/17 01:53:57;;;;;;;48.60;18.95;;;;;;;14.10;74.37;99259.27;2160845;82;20977;-81
2021/06/17 01:56:58;;;;;;;21.65;17.50;;;;;;;14.07;74.68;99258.83;2160367;82;21392;-82
2021/06/17 01:59:59;;;;;;;19.52;16.77;;;;;;;14.05;74.92;99254.44;2160901;82;20969;-81
2021/06/17 02:03:00;;;;;;;19.82;17.77;;;;;;;14.02;75.02;99251.37;2160698;82;21020;-82
2021/06/17 02:06:01;;;;;;;20.25;17.45;;;;;;;14.05;75.21;99255.75;2160778;82;20932;-82
2021/06/17 02:09:02;;;;;;;22.45;17.92;;;;;;;14.04;75.17;99249.62;2160749;82;21373;-83
2021/06/17 02:12:03;;;;;;;48.78;21.02;;;;;;;14.03;75.17;99252.69;2160966;82;20952;-81
2021/06/17 02:15:04;;;;;;;24.57;16.97;;;;;;;14.02;75.36;99253.55;2160980;82;20926;-81
2021/06/17 02:18:05;;;;;;;21.87;17.00;;;;;;;14.04;75.50;99257.50;2160691;82;20920;-81
2021/06/17 02:21:06;;;;;;;45.83;20.23;;;;;;;14.01;75.49;99254.42;2160968;82;21463;-80
2021/06/17 02:24:07;;;;;;;20.25;16.87;;;;;;;14.01;75.35;99253.11;2161133;82;20898;-81
2021/06/17 02:27:08;;;;;;;22.10;17.52;;;;;;;14.09;77.25;99255.77;2161946;82;20989;-83
2021/06/17 02:30:10;;;;;;;26.42;17.35;;;;;;;15.28;77.92;99260.00;2161886;82;21021;-83
2021/06/17 02:33:11;;;;;;;22.50;15.53;;;;;;;16.49;75.84;99252.27;2161898;82;21001;-84
2021/06/17 02:36:14;;;;;;;16.62;14.93;;;;;;;17.20;73.36;99251.38;2161881;82;21301;-80
2021/06/17 02:39:15;;;;;;;18.25;14.25;;;;;;;17.77;70.85;99241.22;2164757;82;21388;-80
2021/06/17 02:42:16;;;;;;;19.30;14.53;;;;;;;18.18;69.17;99249.10;2169327;82;20945;-82
2021/06/17 02:45:16;;;;;;;19.77;16.35;;;;;;;18.29;67.41;99245.47;2168540;82;20905;-81
2021/06/17 02:48:19;;;;;;;22.60;16.37;;;;;;;17.61;65.79;99244.88;2168034;82;21028;-82
2021/06/17 02:51:20;;;;;;;16.20;14.50;;;;;;;16.91;66.20;99248.09;2168324;82;20976;-84
2021/06/17 02:54:20;;;;;;;19.55;15.40;;;;;;;16.45;66.70;99249.19;2168280;82;20893;-83
2021/06/17 02:57:21;;;;;;;15.58;13.93;;;;;;;16.11;67.25;99252.86;2168344;82;20925;-82
2021/06/17 03:00:22;;;;;;;22.37;15.45;;;;;;;15.84;67.84;99258.66;2168370;82;20905;-82
2021/06/17 03:03:23;;;;;;;19.52;16.05;;;;;;;15.64;68.13;99259.14;2168371;82;20929;-83
2021/06/17 03:06:24;;;;;;;17.37;15.55;;;;;;;15.49;68.65;99261.30;2168496;82;20914;-82
2021/06/17 03:09:25;;;;;;;20.05;16.30;;;;;;;15.40;68.99;99263.94;2168401;82;20929;-83
2021/06/17 03:12:26;;;;;;;19.23;15.98;;;;;;;15.20;69.47;99270.52;2168447;82;20937;-83
2021/06/17 03:15:28;;;;;;;16.75;15.13;;;;;;;15.20;69.47;99270.52;2168350;82;20993;-82
2021/06/17 03:18:28;;;;;;;17.60;15.50;;;;;;;15.12;69.68;99261.75;2168322;82;20937;-83
2021/06/17 03:21:29;;;;;;;17.82;15.90;;;;;;;15.06;69.94;99263.07;2167998;82;21012;-83
2021/06/17 03:24:30;;;;;;;19.30;16.87;;;;;;;15.04;70.32;99270.08;2168227;82;20925;-83
2021/06/17 03:27:32;;;;;;;17.57;15.70;;;;;;;15.04;70.32;99270.08;2168409;82;20981;-83
2021/06/17 03:30:32;;;;;;;20.60;16.12;;;;;;;15.02;70.53;99269.20;2168304;82;20968;-83
2021/06/17 03:33:36;;;;;;;20.23;16.07;;;;;;;15.06;70.64;99267.45;2168336;82;20996;-84
2021/06/17 03:36:36;;;;;;;18.80;15.60;;;;;;;15.08;70.66;99270.52;2168081;82;20981;-82
2021/06/17 03:39:37;;;;;;;65.37;17.70;;;;;;;15.08;70.91;99271.84;2169564;82;21067;-84
2021/06/17 03:42:38;;;;;;;20.65;16.87;;;;;;;15.11;71.04;99270.52;2171587;82;20969;-84
2021/06/17 03:45:39;;;;;;;27.75;19.00;;;;;;;15.13;71.03;99273.15;2171572;82;21253;-84
2021/06/17 03:48:40;;;;;;;26.80;18.87;;;;;;;15.15;71.22;99274.03;2171096;82;20953;-84
2021/06/17 03:51:41;;;;;;;36.63;19.55;;;;;;;15.23;71.49;99277.09;2171342;82;21044;-83
2021/06/17 03:54:43;;;;;;;22.32;18.45;;;;;;;15.33;71.71;99271.83;2171044;82;20898;-83
2021/06/17 03:57:44;;;;;;;27.87;18.82;;;;;;;15.43;71.87;99272.27;2171212;82;20948;-83
2021/06/17 04:00:45;;;;;;;19.87;17.37;;;;;;;15.59;72.08;99276.22;2171305;82;20993;-82
2021/06/17 04:03:46;;;;;;;45.05;19.20;;;;;;;15.80;72.16;99281.92;2172149;82;20947;-81
2021/06/17 04:06:47;;;;;;;21.77;17.77;;;;;;;15.98;72.10;99278.80;2172035;82;20989;-83
2021/06/17 04:09:48;;;;;;;20.95;15.83;;;;;;;16.14;72.99;99272.16;2171268;82;21368;-83
2021/06/17 04:12:49;;;;;;;20.72;18.57;;;;;;;16.49;72.61;99282.58;2172095;82;21376;-83
2021/06/17 04:15:50;;;;;;;22.67;17.62;;;;;;;16.88;73.33;99277.55;2171608;82;21032;-82
2021/06/17 04:18:51;;;;;;;18.98;17.07;;;;;;;17.30;72.91;99279.88;2171019;82;20976;-82
2021/06/17 04:21:52;;;;;;;19.95;16.65;;;;;;;17.65;72.70;99272.55;2170379;82;21040;-81
2021/06/17 04:24:53;;;;;;;17.17;15.50;;;;;;;18.01;72.29;99266.47;2170568;82;20957;-82
2021/06/17 04:27:55;;;;;;;20.17;15.80;;;;;;;18.32;71.38;99270.53;2170889;82;20965;-83
2021/06/17 04:30:58;;;;;;;;;;;;;;;18.60;70.90;99260.47;2150061;82;21380;-82
2021/06/17 04:34:00;;;;;;;15.03;13.62;;;;;;;18.89;70.31;99260.08;2170759;82;20357;-82
2021/06/17 04:37:00;;;;;;;16.55;14.00;;;;;;;19.18;69.64;99260.09;2171092;82;20944;-83
2021/06/17 04:40:02;;;;;;;17.25;13.10;;;;;;;19.40;68.79;99267.66;2170998;82;21045;-82
2021/06/17 04:43:03;;;;;;;18.12;13.00;;;;;;;19.63;68.42;99267.73;2170963;82;20941;-83
2021/06/17 04:46:04;;;;;;;15.63;12.68;;;;;;;19.80;67.78;99266.10;2171211;82;20973;-81
2021/06/17 04:49:05;;;;;;;14.05;12.03;;;;;;;20.06;67.30;99267.83;2171034;82;20948;-83
2021/06/17 04:52:06;;;;;;;14.30;12.07;;;;;;;20.28;66.33;99266.49;2170685;82;21051;-84
2021/06/17 04:55:07;;;;;;;15.13;12.30;;;;;;;20.51;66.26;99267.37;2171036;82;20972;-83
2021/06/17 04:58:08;;;;;;;13.98;11.48;;;;;;;20.73;64.83;99273.52;2171049;82;21316;-82
2021/06/17 05:01:10;;;;;;;16.27;13.50;;;;;;;20.87;65.16;99272.34;2171034;82;21301;-81
2021/06/17 05:04:16;;;;;;;23.20;13.08;;;;;;;21.41;64.28;99267.97;2147218;82;21309;-81
2021/06/17 05:13:42;;;;;;;17.77;11.95;;;;;;;23.06;59.21;99266.01;2171107;82;21004;-81
2021/06/17 05:16:40;;;;;;;14.53;10.98;;;;;;;23.32;59.83;99269.16;2170037;82;21352;-79
2021/06/17 05:19:41;;;;;;;13.72;11.45;;;;;;;23.56;58.80;99277.72;2170289;81;20905;-79
2021/06/17 05:22:42;;;;;;;19.00;11.60;;;;;;;23.85;58.81;99267.39;2170027;82;21336;-79
2021/06/17 05:25:44;;;;;;;13.65;11.35;;;;;;;24.21;58.32;99276.32;2170077;82;20968;-81
2021/06/17 05:28:45;;;;;;;13.35;10.82;;;;;;;24.51;57.18;99269.91;2170620;82;21005;-82
2021/06/17 05:31:46;;;;;;;19.10;10.75;;;;;;;24.78;56.64;99270.17;2170656;82;20929;-82
2021/06/17 05:34:47;;;;;;;19.73;10.70;;;;;;;24.77;55.41;99271.11;2170527;82;21004;-79
2021/06/17 05:37:49;;;;;;;11.33;9.38;;;;;;;24.91;55.64;99265.69;2170593;82;20940;-83
2021/06/17 05:40:50;;;;;;;14.60;10.90;;;;;;;25.17;54.33;99268.71;2163745;82;21040;-83
2021/06/17 05:43:51;;;;;;;12.13;10.35;;;;;;;25.17;54.25;99270.91;2160307;82;21340;-82
2021/06/17 05:46:52;;;;;;;16.00;11.05;;;;;;;25.39;53.81;99274.44;2160461;82;20976;-82
2021/06/17 05:49:53;;;;;;;14.93;9.90;;;;;;;25.41;53.04;99271.70;2160184;81;21045;-80
2021/06/17 05:52:54;;;;;;;19.62;10.58;;;;;;;25.44;52.51;99277.39;2160533;82;21033;-80
2021/06/17 05:55:55;;;;;;;14.73;9.60;;;;;;;25.47;52.23;99286.61;2160117;82;20945;-77
2021/06/17 05:58:57;;;;;;;14.95;10.05;;;;;;;25.66;52.05;99284.47;2160097;82;20977;-81
2021/06/17 06:01:58;;;;;;;12.98;9.70;;;;;;;25.82;51.81;99295.38;2160385;82;21032;-81
2021/06/17 06:05:00;;;;;;;16.17;10.23;;;;;;;25.81;51.09;99294.11;2160034;82;21373;-81
2021/06/17 06:08:02;;;;;;;12.80;9.90;;;;;;;25.73;51.35;99299.78;2160093;82;21388;-79
2021/06/17 06:11:03;;;;;;;10.82;9.53;;;;;;;25.80;51.54;99294.58;2160349;82;21053;-80
2021/06/17 06:14:06;;;;;;;10.95;9.05;;;;;;;26.09;51.56;99294.67;2160446;82;21002;-80
2021/06/17 06:17:07;;;;;;;13.22;10.23;;;;;;;26.22;50.76;99294.53;2160761;82;20953;-79
2021/06/17 06:20:08;;;;;;;14.43;9.35;;;;;;;26.32;50.23;99302.58;2160420;82;20985;-81
2021/06/17 06:23:09;;;;;;;16.45;9.70;;;;;;;26.49;49.69;99308.50;2160295;82;21309;-80
2021/06/17 06:26:11;;;;;;;13.22;8.60;;;;;;;26.63;49.43;99315.44;2160053;82;20968;-80
2021/06/17 06:29:12;;;;;;;17.05;9.58;;;;;;;26.66;49.06;99313.95;2160316;82;21413;-81
2021/06/17 06:32:15;;;;;;;14.18;9.03;;;;;;;26.72;48.50;99322.17;2160657;82;21021;-80
2021/06/17 06:35:16;;;;;;;13.38;9.25;;;;;;;26.77;47.98;99313.92;2160493;82;21060;-82
2021/06/17 06:38:17;;;;;;;10.65;8.58;;;;;;;26.75;47.34;99315.80;2160129;82;20961;-81
2021/06/17 06:41:18;;;;;;;11.97;8.28;;;;;;;26.80;47.71;99312.44;2160419;82;21084;-81
2021/06/17 06:44:21;;;;;;;9.78;8.08;;;;;;;26.96;46.59;99313.48;2160075;82;20925;-80
2021/06/17 06:47:24;;;;;;;11.57;8.80;;;;;;;27.15;46.83;99318.40;2160395;82;20957;-80
2021/06/17 06:50:25;;;;;;;;;;;;;;;27.15;46.83;99318.40;2162932;82;21497;-80
2021/06/17 06:53:29;;;;;;;19.57;9.28;;;;;;;27.14;45.36;99325.17;2159817;82;20143;-82
2021/06/17 06:56:30;;;;;;;11.35;8.48;;;;;;;27.14;45.30;99327.38;2160464;82;21053;-83
2021/06/17 06:59:31;;;;;;;13.68;8.35;;;;;;;27.23;45.65;99320.70;2160881;82;20918;-82
2021/06/17 07:02:33;;;;;;;8.78;7.87;;;;;;;27.44;44.93;99326.83;2160857;82;20961;-83
2021/06/17 07:05:35;;;;;;;11.65;8.38;;;;;;;27.49;45.15;99318.95;2159833;82;21321;-79
2021/06/17 07:08:36;;;;;;;16.35;8.80;;;;;;;27.56;44.96;99324.41;2160122;82;21314;-79
2021/06/17 07:11:37;;;;;;;14.90;8.68;;;;;;;27.57;44.32;99323.46;2160424;82;21009;-83
2021/06/17 07:14:37;;;;;;;11.97;7.80;;;;;;;27.66;44.23;99325.32;2160608;82;20996;-83
2021/06/17 07:17:38;;;;;;;10.00;8.25;;;;;;;27.80;44.08;99330.42;2159971;82;20945;-79
2021/06/17 07:20:39;;;;;;;11.68;7.85;;;;;;;27.79;43.78;99334.05;2160473;81;21407;-80
2021/06/17 07:23:41;;;;;;;11.70;8.88;;;;;;;27.90;44.09;99330.81;2160849;82;20997;-81
2021/06/17 07:26:42;;;;;;;13.68;8.90;;;;;;;27.94;43.83;99332.87;2161029;82;21004;-83
2021/06/17 07:29:43;;;;;;;20.57;9.45;;;;;;;27.79;43.94;99332.70;2160619;82;21381;-83
2021/06/17 07:32:47;;;;;;;14.45;8.90;;;;;;;27.78;43.69;99337.67;2160781;82;20953;-82
2021/06/17 07:35:48;;;;;;;;;;;;;;;27.76;43.40;99334.20;2163355;82;21045;-81
2021/06/17 07:38:49;;;;;;;13.08;9.05;;;;;;;27.81;43.53;99338.86;2160865;82;20390;-83
2021/06/17 07:41:52;;;;;;;15.18;9.10;;;;;;;27.87;43.47;99337.20;2167110;82;21016;-82
2021/06/17 07:44:53;;;;;;;16.85;9.45;;;;;;;27.81;43.51;99326.79;2168280;82;20937;-81
2021/06/17 07:47:55;;;;;;;9.55;8.33;;;;;;;27.91;43.30;99332.08;2167997;82;20973;-80
2021/06/17 07:50:56;;;;;;;14.43;9.05;;;;;;;27.93;43.35;99332.00;2167450;82;20988;-81
2021/06/17 07:54:01;;;;;;;9.58;8.68;;;;;;;28.00;42.99;99329.87;2167323;82;20972;-81
2021/06/17 07:57:02;;;;;;;12.33;8.70;;;;;;;28.13;42.87;99330.97;2167603;82;20909;-81
2021/06/17 08:03:10;;;;;;;13.75;8.83;;;;;;;28.35;41.67;99331.61;2121158;82;21336;-81
2021/06/17 08:06:11;;;;;;;23.87;8.83;;;;;;;28.32;41.98;99333.11;2167096;82;21192;-80
2021/06/17 08:09:18;;;;;;;14.80;8.55;;;;;;;28.48;42.01;99323.30;2167921;82;20917;-81
2021/06/17 08:12:17;;;;;;;10.48;8.63;;;;;;;28.54;41.99;99339.08;2144718;82;20961;-80
2021/06/17 08:15:19;;;;;;;12.68;8.30;;;;;;;28.52;41.53;99341.45;2168059;82;21053;-81
2021/06/17 08:18:20;;;;;;;13.38;8.73;;;;;;;28.63;41.34;99346.28;2168139;82;20981;-81
2021/06/17 08:21:21;;;;;;;15.93;8.80;;;;;;;28.74;41.02;99339.84;2167848;82;21399;-80
2021/06/17 08:24:22;;;;;;;11.33;7.95;;;;;;;28.81;41.05;99341.25;2168011;82;20953;-82
2021/06/17 08:27:24;;;;;;;9.73;8.33;;;;;;;28.98;40.17;99334.97;2167687;82;21040;-81
2021/06/17 08:30:25;;;;;;;12.30;8.45;;;;;;;28.62;40.24;99331.11;2167929;82;21020;-81
2021/06/17 08:33:26;;;;;;;12.85;8.58;;;;;;;28.39;40.77;99347.95;2168072;82;20941;-79
2021/06/17 08:36:27;;;;;;;11.65;7.95;;;;;;;28.61;40.73;99342.33;2168235;82;20947;-78
2021/06/17 08:39:28;;;;;;;14.25;8.68;;;;;;;28.98;40.20;99338.53;2168442;82;20929;-78
2021/06/17 08:42:30;;;;;;;15.18;8.78;;;;;;;28.91;39.69;99337.13;2170676;82;21222;-78
2021/06/17 08:45:31;;;;;;;13.30;8.08;;;;;;;28.92;40.68;99340.69;2170302;82;20943;-81
2021/06/17 08:48:32;;;;;;;10.53;7.42;;;;;;;29.09;39.63;99336.11;2170704;82;21000;-81
2021/06/17 08:51:35;;;;;;;10.15;7.17;;;;;;;29.34;38.42;99338.75;2170505;81;21040;-81
2021/06/17 08:54:36;;;;;;;16.73;8.75;;;;;;;28.99;38.83;99330.86;2170794;82;21020;-83
2021/06/17 08:57:37;;;;;;;18.10;7.90;;;;;;;29.04;38.95;99337.32;2170816;82;21000;-82
2021/06/17 09:00:39;;;;;;;10.13;7.40;;;;;;;29.51;38.44;99347.27;2170576;82;21349;-80
2021/06/17 09:03:40;;;;;;;12.60;7.37;;;;;;;29.56;37.09;99351.42;2170803;82;21360;-81
2021/06/17 09:06:42;;;;;;;9.88;7.60;;;;;;;29.57;37.16;99354.50;2170989;82;20937;-81
2021/06/17 09:09:43;;;;;;;8.73;7.92;;;;;;;29.26;37.80;99362.04;2171007;82;21025;-80
2021/06/17 09:12:44;;;;;;;18.70;7.83;;;;;;;29.37;37.52;99352.02;2170551;82;20985;-80
2021/06/17 09:15:46;;;;;;;16.65;7.87;;;;;;;29.09;37.46;99352.71;2170821;82;21006;-82
2021/06/17 09:18:47;;;;;;;9.73;7.35;;;;;;;29.14;38.53;99353.33;2170708;82;21361;-80
2021/06/17 09:21:48;;;;;;;12.25;7.45;;;;;;;29.43;38.22;99359.77;2170680;82;21396;-81
2021/06/17 09:24:49;;;;;;;14.75;8.40;;;;;;;29.74;37.59;99355.73;2171022;82;20948;-79
2021/06/17 09:27:55;;;;;;;9.15;6.60;;;;;;;29.87;37.38;99355.88;2171005;82;20949;-80
2021/06/17 09:30:52;;;;;;;9.25;7.08;;;;;;;29.99;36.77;99348.42;2169960;82;20929;-82
2021/06/17 09:33:54;;;;;;;12.43;7.45;;;;;;;29.97;36.44;99353.51;2170310;82;21304;-80
2021/06/17 09:36:55;;;;;;;8.78;7.75;;;;;;;30.19;36.14;99346.39;2170368;82;21000;-80
2021/06/17 09:39:56;;;;;;;11.90;7.60;;;;;;;29.97;36.11;99344.09;2170091;82;20979;-79
2021/06/17 09:42:57;;;;;;;27.27;10.08;;;;;;;29.61;36.68;99341.74;2167369;82;20993;-79
2021/06/17 09:45:58;;;;;;;33.38;9.93;;;;;;;29.30;37.24;99330.47;2167651;82;20976;-80
2021/06/17 09:48:59;;;;;;;34.90;8.98;;;;;;;29.58;36.25;99338.75;2167267;82;21415;-81
2021/06/17 09:52:00;;;;;;;11.70;7.90;;;;;;;29.57;36.41;99335.67;2167578;82;21043;-81
2021/06/17 09:55:01;;;;;;;15.40;7.97;;;;;;;29.46;36.56;99331.36;2167917;82;21308;-81
2021/06/17 09:58:03;;;;;;;11.22;7.40;;;;;;;29.82;36.36;99335.10;2168136;82;20961;-81
2021/06/17 10:01:05;;;;;;;9.00;7.33;;;;;;;29.71;36.50;99339.77;2168290;82;21036;-81
2021/06/17 10:04:07;;;;;;;9.58;7.22;;;;;;;29.47;36.90;99334.44;2168031;82;21036;-81
2021/06/17 10:07:09;;;;;;;9.45;7.83;;;;;;;29.59;37.04;99328.38;2168472;82;20976;-79
2021/06/17 10:10:12;;;;;;;10.18;7.58;;;;;;;29.77;36.77;99319.23;2145847;82;20937;-81
2021/06/17 10:13:13;;;;;;;10.27;8.20;;;;;;;29.98;36.92;99321.12;2169173;82;20988;-80
2021/06/17 10:16:17;;;;;;;10.85;7.75;;;;;;;29.89;37.59;99318.98;2168963;82;21374;-82
2021/06/17 10:19:19;;;;;;;8.68;7.37;;;;;;;29.76;37.45;99324.22;2168695;82;20989;-81
2021/06/17 10:22:20;;;;;;;12.90;7.90;;;;;;;30.10;37.03;99317.72;2168806;82;21396;-78
2021/06/17 10:25:21;;;;;;;29.70;8.58;;;;;;;30.50;36.30;99317.13;2168771;82;21380;-81
2021/06/17 10:28:25;;;;;;;72.37;12.88;;;;;;;30.89;35.84;99307.91;2169176;82;21001;-82
2021/06/17 10:31:26;;;;;;;10.15;7.37;;;;;;;31.12;34.91;99310.47;2168295;82;21013;-84
2021/06/17 10:34:29;;;;;;;15.13;7.87;;;;;;;31.01;34.74;99310.30;2168952;82;20944;-83
2021/06/17 10:37:32;;;;;;;11.33;7.05;;;;;;;30.60;35.01;99312.93;2168825;82;20993;-83
2021/06/17 10:40:35;;;;;;;11.08;7.03;;;;;;;30.26;34.58;99310.92;2168351;82;21052;-84
2021/06/17 10:43:38;;;;;;;8.40;7.40;;;;;;;30.00;35.12;99303.05;2168611;82;21024;-80
2021/06/17 10:46:38;;;;;;;7.87;7.08;;;;;;;30.22;35.14;99305.34;2168710;82;21377;-82
2021/06/17 10:49:39;;;;;;;10.53;6.75;;;;;;;30.70;34.78;99301.95;2168522;82;21393;-82
2021/06/17 10:52:42;;;;;;;7.55;6.78;;;;;;;31.14;33.65;99299.58;2168535;82;21012;-80
2021/06/17 10:55:43;;;;;;;20.30;7.42;;;;;;;31.33;32.55;99290.73;2168412;82;20937;-80
2021/06/17 10:58:45;;;;;;;9.37;6.67;;;;;;;31.55;32.20;99299.61;2168122;82;21004;-82
2021/06/17 11:01:46;;;;;;;9.35;7.15;;;;;;;31.78;32.22;99290.85;2168557;82;20905;-84
2021/06/17 11:04:49;;;;;;;9.25;6.65;;;;;;;31.94;30.93;99293.37;2168555;82;20967;-82
2021/06/17 11:10:57;;;;;;;7.28;6.60;;;;;;;31.61;31.99;99279.82;2146064;82;20084;-80
2021/06/17 11:13:58;;;;;;;11.18;7.12;;;;;;;31.00;32.29;99279.77;2167700;82;20976;-83
2021/06/17 11:16:59;;;;;;;7.10;6.40;;;;;;;30.70;32.95;99273.19;2168415;82;21432;-85
2021/06/17 11:20:04;;;;;;;7.42;6.30;;;;;;;30.21;33.99;99273.98;2168249;82;21357;-82
2021/06/17 11:23:03;;;;;;;9.23;6.72;;;;;;;30.40;34.00;99272.39;2167865;82;21348;-81
2021/06/17 11:26:04;;;;;;;11.15;7.80;;;;;;;30.85;33.41;99275.38;2167890;82;20985;-82
2021/06/17 11:29:05;;;;;;;11.30;7.10;;;;;;;31.08;32.74;99269.84;2168416;82;20924;-81
2021/06/17 11:32:09;;;;;;;13.48;6.45;;;;;;;31.14;32.49;99272.62;2168516;82;20961;-81
2021/06/17 11:35:12;;;;;;;6.83;6.10;;;;;;;31.35;32.06;99273.95;2168089;82;20925;-83
2021/06/17 11:38:13;;;;;;;12.55;6.75;;;;;;;31.44;31.87;99265.73;2168213;82;21068;-83
2021/06/17 11:41:14;;;;;;;14.83;6.65;;;;;;;31.16;32.39;99268.88;2167664;82;20996;-83
2021/06/17 11:44:15;;;;;;;8.93;6.45;;;;;;;31.08;32.74;99274.37;2167742;82;21296;-83
2021/06/17 11:47:16;;;;;;;11.53;8.08;;;;;;;30.84;32.01;99273.64;2168551;82;20980;-81
2021/06/17 11:50:18;;;;;;;9.05;5.67;;;;;;;31.00;32.18;99277.08;2168610;82;20929;-80
2021/06/17 11:53:18;;;;;;;8.88;6.78;;;;;;;31.24;31.74;99277.84;2168235;82;21040;-82
2021/06/17 11:56:20;;;;;;;7.65;6.75;;;;;;;31.09;32.28;99269.36;2168479;82;20956;-84
2021/06/17 11:59:21;;;;;;;9.00;5.92;;;;;;;30.83;32.31;99274.61;2168754;82;20969;-81
2021/06/17 12:02:22;;;;;;;7.35;6.67;;;;;;;30.92;32.54;99271.32;2168577;82;21054;-82
2021/06/17 12:05:24;;;;;;;9.78;6.75;;;;;;;30.56;32.75;99262.87;2168826;82;20959;-82
2021/06/17 12:08:26;;;;;;;14.10;7.15;;;;;;;30.20;33.40;99273.60;2168252;82;20957;-80
2021/06/17 12:11:27;;;;;;;13.08;7.05;;;;;;;29.89;34.00;99265.63;2167623;82;21036;-80
2021/06/17 12:14:28;;;;;;;13.05;7.12;;;;;;;29.69;34.59;99277.12;2167912;82;20996;-81
2021/06/17 12:17:30;;;;;;;11.60;7.72;;;;;;;29.62;34.95;99266.33;2167603;82;20917;-81
2021/06/17 12:20:40;;;;;;;8.85;7.03;;;;;;;29.71;34.85;99267.61;2167719;82;21364;-82
2021/06/17 12:23:41;;;;;;;10.03;6.55;;;;;;;29.69;34.61;99265.48;2167514;82;21047;-80
2021/06/17 12:26:43;;;;;;;7.12;6.42;;;;;;;29.57;34.94;99267.09;2168278;82;21321;-81
2021/06/17 12:32:47;;;;;;;;;;;;;;;29.24;35.46;99262.27;2147627;82;20956;-80
2021/06/17 12:35:50;;;;;;;8.30;7.43;;;;;;;29.12;35.79;99263.36;2144461;82;20096;-83
2021/06/17 12:38:52;;;;;;;9.80;6.78;;;;;;;29.00;35.88;99261.85;2168387;82;20945;-80
2021/06/17 12:41:53;;;;;;;8.40;7.33;;;;;;;28.90;36.16;99258.82;2168099;82;21436;-80
2021/06/17 12:44:55;;;;;;;10.82;6.55;;;;;;;29.00;36.40;99253.31;2168247;82;20949;-81
2021/06/17 12:48:02;;;;;;;33.20;9.27;;;;;;;28.96;35.79;99255.79;2168188;82;21040;-79
2021/06/17 12:54:24;;;;;;;11.03;7.00;;;;;;;28.94;36.19;99255.01;2167194;82;21041;-79
2021/06/17 12:57:25;;;;;;;24.57;7.55;;;;;;;28.89;36.47;99262.46;2167547;82;21012;-79
2021/06/17 13:00:27;;;;;;;11.85;6.55;;;;;;;28.88;36.60;99256.70;2167773;82;20993;-79
2021/06/17 13:03:29;;;;;;;11.75;5.95;;;;;;;28.84;36.55;99258.69;2167393;82;21436;-79
2021/06/17 13:06:30;;;;;;;12.43;6.60;;;;;;;29.00;35.48;99260.03;2167776;82;21004;-82
2021/06/17 13:09:33;;;;;;;9.08;6.58;;;;;;;29.00;35.93;99259.17;2167341;82;21171;-79
2021/06/17 13:12:34;;;;;;;6.57;5.80;;;;;;;29.04;35.65;99256.22;2168139;82;20984;-79
2021/06/17 13:15:35;;;;;;;7.58;6.55;;;;;;;29.49;34.81;99249.19;2167826;82;21009;-81
2021/06/17 13:18:36;;;;;;;8.93;6.42;;;;;;;29.86;34.40;99244.30;2167486;82;20986;-80
2021/06/17 13:21:37;;;;;;;6.10;5.45;;;;;;;29.63;34.14;99244.34;2167745;81;20985;-80
2021/06/17 13:24:39;;;;;;;7.70;6.17;;;;;;;29.60;33.88;99248.07;2167945;82;20965;-80
2021/06/17 13:27:40;;;;;;;44.88;8.78;;;;;;;29.53;34.58;99247.19;2167613;82;20921;-79
2021/06/17 13:30:41;;;;;;;25.10;8.25;;;;;;;29.38;34.76;99243.51;2167456;82;21004;-80
2021/06/17 13:33:43;;;;;;;12.45;6.42;;;;;;;29.34;34.82;99243.30;2167759;82;21336;-81
2021/06/17 13:36:44;;;;;;;10.38;6.47;;;;;;;29.28;34.62;99245.00;2168070;82;21356;-81
2021/06/17 13:39:45;;;;;;;12.75;6.30;;;;;;;29.11;34.50;99248.19;2167899;82;21384;-80
2021/06/17 13:42:46;;;;;;;9.95;6.62;;;;;;;29.06;34.08;99248.06;2169706;82;20980;-79
2021/06/17 13:45:48;;;;;;;6.65;5.28;;;;;;;29.37;33.15;99245.33;2170403;82;20993;-79
2021/06/17 13:48:49;;;;;;;13.60;6.12;;;;;;;29.41;32.79;99244.67;2170261;82;20972;-78
2021/06/17 13:51:51;;;;;;;6.70;5.40;;;;;;;29.73;32.97;99243.69;2170195;79;21011;-78
2021/06/17 13:54:52;;;;;;;19.82;6.92;;;;;;;29.70;33.00;99240.31;2170244;82;21352;-79
2021/06/17 13:57:56;;;;;;;7.92;5.40;;;;;;;29.63;33.54;99237.61;2169920;82;20897;-79
2021/06/17 14:00:57;;;;;;;9.35;6.50;;;;;;;30.02;32.20;99245.98;2170031;82;20964;-80
2021/06/17 14:03:58;;;;;;;9.48;6.45;;;;;;;30.21;32.10;99241.68;2169984;82;20916;-79
2021/06/17 14:07:00;;;;;;;7.97;5.65;;;;;;;30.37;32.08;99238.44;2170393;82;21001;-79
2021/06/17 14:10:01;;;;;;;7.85;5.25;;;;;;;30.18;32.02;99244.56;2170276;82;20948;-79
2021/06/17 14:13:03;;;;;;;8.25;5.50;;;;;;;30.05;32.48;99239.55;2170729;82;21289;-78
2021/06/17 14:16:04;;;;;;;11.63;5.28;;;;;;;29.93;32.64;99230.84;2170447;82;20941;-79
2021/06/17 14:22:08;;;;;;;7.42;5.50;;;;;;;29.70;32.88;99234.94;2147103;82;20944;-80
2021/06/17 14:25:10;;;;;;;9.45;5.47;;;;;;;29.63;32.11;99229.06;2170128;82;20944;-79